sensor_id;sensor_type;location;lat;lon;timestamp;temperature;humidity
74934;DHT22;63499;53.232;7.492;2023-01-29T00:02:11;2.50;99.90
74934;DHT22;63499;53.232;7.492;2023-01-29T00:04:37;2.50;99.90
74934;DHT22;63499;53.232;7.492;2023-01-29T00:07:03;2.50;99.90
74934;DHT22;63499;53.232;7.492;2023-01-29T00:09:29;2.50;99.90
74934;DHT22;63499;53.232;7.492;2023-01-29T00:11:56;2.50;99.90
74934;DHT22;63499;53.232;7.492;2023-01-29T00:14:22;2.50;99.90
74934;DHT22;63499;53.232;7.492;2023-01-29T00:16:48;2.50;99.90
74934;DHT22;63499;53.232;7.492;2023-01-29T00:19:14;2.50;99.90
74934;DHT22;63499;53.232;7.492;2023-01-29T00:21:40;2.50;99.90
74934;DHT22;63499;53.232;7.492;2023-01-29T00:24:06;2.50;99.90
74934;DHT22;63499;53.232;7.492;2023-01-29T00:26:32;2.50;99.90
74934;DHT22;63499;53.232;7.492;2023-01-29T00:28:58;2.50;99.90
74934;DHT22;63499;53.232;7.492;2023-01-29T00:31:27;2.50;99.90
74934;DHT22;63499;53.232;7.492;2023-01-29T00:33:53;2.50;99.90
74934;DHT22;63499;53.232;7.492;2023-01-29T00:36:20;2.60;99.90
74934;DHT22;63499;53.232;7.492;2023-01-29T00:38:46;2.50;99.90
74934;DHT22;63499;53.232;7.492;2023-01-29T00:41:19;2.60;99.90
74934;DHT22;63499;53.232;7.492;2023-01-29T00:44:04;2.60;99.90
74934;DHT22;63499;53.232;7.492;2023-01-29T00:46:49;2.60;99.90
74934;DHT22;63499;53.232;7.492;2023-01-29T00:49:15;2.60;99.90
74934;DHT22;63499;53.232;7.492;2023-01-29T00:51:41;2.60;99.90
74934;DHT22;63499;53.232;7.492;2023-01-29T00:54:07;2.70;99.90
74934;DHT22;63499;53.232;7.492;2023-01-29T00:56:34;2.70;99.90
74934;DHT22;63499;53.232;7.492;2023-01-29T00:59:00;2.70;99.90
74934;DHT22;63499;53.232;7.492;2023-01-29T01:01:26;2.70;99.90
74934;DHT22;63499;53.232;7.492;2023-01-29T01:04:10;2.70;99.90
74934;DHT22;63499;53.232;7.492;2023-01-29T01:06:37;2.80;99.90
74934;DHT22;63499;53.232;7.492;2023-01-29T01:09:06;2.80;99.90
74934;DHT22;63499;53.232;7.492;2023-01-29T01:11:51;2.90;99.90
74934;DHT22;63499;53.232;7.492;2023-01-29T01:14:18;2.90;99.90
74934;DHT22;63499;53.232;7.492;2023-01-29T01:16:45;3.00;99.90
74934;DHT22;63499;53.232;7.492;2023-01-29T01:19:12;3.00;99.90
74934;DHT22;63499;53.232;7.492;2023-01-29T01:21:38;3.00;99.90
74934;DHT22;63499;53.232;7.492;2023-01-29T01:24:04;3.00;99.90
74934;DHT22;63499;53.232;7.492;2023-01-29T01:26:31;3.10;99.90
74934;DHT22;63499;53.232;7.492;2023-01-29T01:28:57;3.10;99.90
74934;DHT22;63499;53.232;7.492;2023-01-29T01:31:23;3.10;99.90
74934;DHT22;63499;53.232;7.492;2023-01-29T01:33:49;3.10;99.90
74934;DHT22;63499;53.232;7.492;2023-01-29T01:36:16;3.10;99.90
74934;DHT22;63499;53.232;7.492;2023-01-29T01:38:42;3.20;99.90
74934;DHT22;63499;53.232;7.492;2023-01-29T01:41:11;3.20;99.90
74934;DHT22;63499;53.232;7.492;2023-01-29T01:46:13;3.20;99.90
74934;DHT22;63499;53.232;7.492;2023-01-29T01:48:39;3.30;99.90
74934;DHT22;63499;53.232;7.492;2023-01-29T01:51:05;3.30;99.90
74934;DHT22;63499;53.232;7.492;2023-01-29T01:53:33;3.30;99.90
74934;DHT22;63499;53.232;7.492;2023-01-29T01:56:12;3.30;99.90
74934;DHT22;63499;53.232;7.492;2023-01-29T01:58:40;3.40;99.90
74934;DHT22;63499;53.232;7.492;2023-01-29T02:01:08;3.40;99.90
74934;DHT22;63499;53.232;7.492;2023-01-29T02:03:36;3.40;99.90
74934;DHT22;63499;53.232;7.492;2023-01-29T02:06:22;3.40;99.90
74934;DHT22;63499;53.232;7.492;2023-01-29T02:09:12;3.40;99.90
74934;DHT22;63499;53.232;7.492;2023-01-29T02:11:57;3.50;99.90
74934;DHT22;63499;53.232;7.492;2023-01-29T02:14:23;3.50;99.90
74934;DHT22;63499;53.232;7.492;2023-01-29T02:16:50;3.50;99.90
74934;DHT22;63499;53.232;7.492;2023-01-29T02:19:22;3.50;99.90
74934;DHT22;63499;53.232;7.492;2023-01-29T02:26:49;3.50;99.90
74934;DHT22;63499;53.232;7.492;2023-01-29T02:31:51;3.50;99.90
74934;DHT22;63499;53.232;7.492;2023-01-29T02:36:55;3.50;99.90
74934;DHT22;63499;53.232;7.492;2023-01-29T02:44:46;3.50;99.90
74934;DHT22;63499;53.232;7.492;2023-01-29T02:52:08;3.50;99.90
74934;DHT22;63499;53.232;7.492;2023-01-29T02:57:41;3.50;99.90
74934;DHT22;63499;53.232;7.492;2023-01-29T03:00:25;3.60;99.90
74934;DHT22;63499;53.232;7.492;2023-01-29T03:05:31;3.50;99.90
74934;DHT22;63499;53.232;7.492;2023-01-29T03:08:05;3.50;99.90
74934;DHT22;63499;53.232;7.492;2023-01-29T03:13:01;3.60;99.90
74934;DHT22;63499;53.232;7.492;2023-01-29T03:15:30;3.50;99.90
74934;DHT22;63499;53.232;7.492;2023-01-29T03:18:23;3.50;99.90
74934;DHT22;63499;53.232;7.492;2023-01-29T03:20:54;3.50;99.90
74934;DHT22;63499;53.232;7.492;2023-01-29T03:23:25;3.50;99.90
74934;DHT22;63499;53.232;7.492;2023-01-29T03:26:12;3.50;99.90
74934;DHT22;63499;53.232;7.492;2023-01-29T03:28:57;3.40;99.90
74934;DHT22;63499;53.232;7.492;2023-01-29T03:31:44;3.40;99.90
74934;DHT22;63499;53.232;7.492;2023-01-29T03:34:32;3.40;99.90
74934;DHT22;63499;53.232;7.492;2023-01-29T03:37:04;3.40;99.90
74934;DHT22;63499;53.232;7.492;2023-01-29T03:39:34;3.40;99.90
74934;DHT22;63499;53.232;7.492;2023-01-29T03:47:34;3.30;99.90
74934;DHT22;63499;53.232;7.492;2023-01-29T03:50:06;3.30;99.90
74934;DHT22;63499;53.232;7.492;2023-01-29T03:52:50;3.30;99.90
74934;DHT22;63499;53.232;7.492;2023-01-29T03:58:04;3.30;99.90
74934;DHT22;63499;53.232;7.492;2023-01-29T04:00:37;3.30;99.90
74934;DHT22;63499;53.232;7.492;2023-01-29T04:05:59;3.30;99.90
74934;DHT22;63499;53.232;7.492;2023-01-29T04:08:32;3.30;99.90
74934;DHT22;63499;53.232;7.492;2023-01-29T04:11:01;3.30;99.90
74934;DHT22;63499;53.232;7.492;2023-01-29T04:13:29;3.30;99.90
74934;DHT22;63499;53.232;7.492;2023-01-29T04:15:58;3.30;99.90
74934;DHT22;63499;53.232;7.492;2023-01-29T04:18:46;3.30;99.90
74934;DHT22;63499;53.232;7.492;2023-01-29T04:21:13;3.30;99.90
74934;DHT22;63499;53.232;7.492;2023-01-29T04:23:40;3.40;99.90
74934;DHT22;63499;53.232;7.492;2023-01-29T04:31:49;3.40;99.90
74934;DHT22;63499;53.232;7.492;2023-01-29T04:34:27;3.50;99.90
74934;DHT22;63499;53.232;7.492;2023-01-29T04:37:06;3.50;99.90
74934;DHT22;63499;53.232;7.492;2023-01-29T04:49:36;3.50;99.90
74934;DHT22;63499;53.232;7.492;2023-01-29T04:52:11;3.50;99.90
74934;DHT22;63499;53.232;7.492;2023-01-29T04:57:19;3.60;99.90
74934;DHT22;63499;53.232;7.492;2023-01-29T04:59:50;3.60;99.90
74934;DHT22;63499;53.232;7.492;2023-01-29T05:02:17;3.60;99.90
74934;DHT22;63499;53.232;7.492;2023-01-29T05:04:43;3.60;99.90
74934;DHT22;63499;53.232;7.492;2023-01-29T05:07:11;3.60;99.90
74934;DHT22;63499;53.232;7.492;2023-01-29T05:09:38;3.60;99.90
74934;DHT22;63499;53.232;7.492;2023-01-29T05:12:05;3.60;99.90
74934;DHT22;63499;53.232;7.492;2023-01-29T05:14:32;3.60;99.90
74934;DHT22;63499;53.232;7.492;2023-01-29T05:17:00;3.60;99.90
74934;DHT22;63499;53.232;7.492;2023-01-29T05:19:26;3.60;99.90
74934;DHT22;63499;53.232;7.492;2023-01-29T05:21:52;3.60;99.90
74934;DHT22;63499;53.232;7.492;2023-01-29T05:24:20;3.60;99.90
74934;DHT22;63499;53.232;7.492;2023-01-29T05:26:48;3.60;99.90
74934;DHT22;63499;53.232;7.492;2023-01-29T05:29:33;3.60;99.90
74934;DHT22;63499;53.232;7.492;2023-01-29T05:31:59;3.50;99.90
74934;DHT22;63499;53.232;7.492;2023-01-29T05:34:25;3.60;99.90
74934;DHT22;63499;53.232;7.492;2023-01-29T05:36:51;3.50;99.90
74934;DHT22;63499;53.232;7.492;2023-01-29T05:39:18;3.50;99.90
74934;DHT22;63499;53.232;7.492;2023-01-29T05:41:44;3.60;99.90
74934;DHT22;63499;53.232;7.492;2023-01-29T05:44:10;3.50;99.90
74934;DHT22;63499;53.232;7.492;2023-01-29T05:46:36;3.50;99.90
74934;DHT22;63499;53.232;7.492;2023-01-29T05:49:02;3.50;99.90
74934;DHT22;63499;53.232;7.492;2023-01-29T05:51:28;3.60;99.90
74934;DHT22;63499;53.232;7.492;2023-01-29T05:53:54;3.50;99.90
74934;DHT22;63499;53.232;7.492;2023-01-29T05:56:20;3.50;99.90
74934;DHT22;63499;53.232;7.492;2023-01-29T05:58:46;3.50;99.90
74934;DHT22;63499;53.232;7.492;2023-01-29T06:01:20;3.50;99.90
74934;DHT22;63499;53.232;7.492;2023-01-29T06:03:46;3.60;99.90
74934;DHT22;63499;53.232;7.492;2023-01-29T06:06:13;3.50;99.90
74934;DHT22;63499;53.232;7.492;2023-01-29T06:08:39;3.60;99.90
74934;DHT22;63499;53.232;7.492;2023-01-29T06:11:09;3.50;99.90
74934;DHT22;63499;53.232;7.492;2023-01-29T06:13:36;3.60;99.90
74934;DHT22;63499;53.232;7.492;2023-01-29T06:16:06;3.60;99.90
74934;DHT22;63499;53.232;7.492;2023-01-29T06:18:32;3.60;99.90
74934;DHT22;63499;53.232;7.492;2023-01-29T06:21:01;3.60;99.90
74934;DHT22;63499;53.232;7.492;2023-01-29T06:23:28;3.60;99.90
74934;DHT22;63499;53.232;7.492;2023-01-29T06:25:58;3.60;99.90
74934;DHT22;63499;53.232;7.492;2023-01-29T06:28:24;3.70;99.90
74934;DHT22;63499;53.232;7.492;2023-01-29T06:30:50;3.60;99.90
74934;DHT22;63499;53.232;7.492;2023-01-29T06:33:16;3.70;99.90
74934;DHT22;63499;53.232;7.492;2023-01-29T06:35:42;3.60;99.90
74934;DHT22;63499;53.232;7.492;2023-01-29T06:38:08;3.70;99.90
74934;DHT22;63499;53.232;7.492;2023-01-29T06:40:34;3.60;99.90
74934;DHT22;63499;53.232;7.492;2023-01-29T06:43:00;3.60;99.90
74934;DHT22;63499;53.232;7.492;2023-01-29T06:45:26;3.60;99.90
74934;DHT22;63499;53.232;7.492;2023-01-29T06:47:52;3.70;99.90
74934;DHT22;63499;53.232;7.492;2023-01-29T06:50:18;3.70;99.90
74934;DHT22;63499;53.232;7.492;2023-01-29T06:52:44;3.70;99.90
74934;DHT22;63499;53.232;7.492;2023-01-29T06:55:10;3.70;99.90
74934;DHT22;63499;53.232;7.492;2023-01-29T06:57:36;3.70;99.90
74934;DHT22;63499;53.232;7.492;2023-01-29T07:00:03;3.60;99.90
74934;DHT22;63499;53.232;7.492;2023-01-29T07:02:29;3.60;99.90
74934;DHT22;63499;53.232;7.492;2023-01-29T07:04:55;3.60;99.90
74934;DHT22;63499;53.232;7.492;2023-01-29T07:07:21;3.60;99.90
74934;DHT22;63499;53.232;7.492;2023-01-29T07:09:47;3.50;99.90
74934;DHT22;63499;53.232;7.492;2023-01-29T07:12:13;3.50;99.90
74934;DHT22;63499;53.232;7.492;2023-01-29T07:14:38;3.50;99.90
74934;DHT22;63499;53.232;7.492;2023-01-29T07:17:04;3.40;99.90
74934;DHT22;63499;53.232;7.492;2023-01-29T07:19:30;3.40;99.90
74934;DHT22;63499;53.232;7.492;2023-01-29T07:21:56;3.40;99.90
74934;DHT22;63499;53.232;7.492;2023-01-29T07:24:22;3.40;99.90
74934;DHT22;63499;53.232;7.492;2023-01-29T07:26:49;3.40;99.90
74934;DHT22;63499;53.232;7.492;2023-01-29T07:29:15;3.40;99.90
74934;DHT22;63499;53.232;7.492;2023-01-29T07:31:41;3.40;99.90
74934;DHT22;63499;53.232;7.492;2023-01-29T07:34:07;3.40;99.90
74934;DHT22;63499;53.232;7.492;2023-01-29T07:36:33;3.40;99.90
74934;DHT22;63499;53.232;7.492;2023-01-29T07:38:59;3.40;99.90
74934;DHT22;63499;53.232;7.492;2023-01-29T07:41:25;3.40;99.90
74934;DHT22;63499;53.232;7.492;2023-01-29T07:43:51;3.40;99.90
74934;DHT22;63499;53.232;7.492;2023-01-29T07:46:17;3.40;99.90
74934;DHT22;63499;53.232;7.492;2023-01-29T07:48:43;3.40;99.90
74934;DHT22;63499;53.232;7.492;2023-01-29T07:51:09;3.40;99.90
74934;DHT22;63499;53.232;7.492;2023-01-29T07:53:35;3.40;99.90
74934;DHT22;63499;53.232;7.492;2023-01-29T07:56:01;3.40;99.90
74934;DHT22;63499;53.232;7.492;2023-01-29T07:58:28;3.50;99.90
74934;DHT22;63499;53.232;7.492;2023-01-29T08:00:54;3.50;99.90
74934;DHT22;63499;53.232;7.492;2023-01-29T08:03:20;3.50;99.90
74934;DHT22;63499;53.232;7.492;2023-01-29T08:05:46;3.50;99.90
74934;DHT22;63499;53.232;7.492;2023-01-29T08:08:12;3.50;99.90
74934;DHT22;63499;53.232;7.492;2023-01-29T08:10:38;3.60;99.90
74934;DHT22;63499;53.232;7.492;2023-01-29T08:13:05;3.50;99.90
74934;DHT22;63499;53.232;7.492;2023-01-29T08:15:31;3.60;99.90
74934;DHT22;63499;53.232;7.492;2023-01-29T08:17:57;3.60;99.90
74934;DHT22;63499;53.232;7.492;2023-01-29T08:20:23;3.60;99.90
74934;DHT22;63499;53.232;7.492;2023-01-29T08:22:56;3.60;99.90
74934;DHT22;63499;53.232;7.492;2023-01-29T08:25:22;3.70;99.90
74934;DHT22;63499;53.232;7.492;2023-01-29T08:27:48;3.70;99.90
74934;DHT22;63499;53.232;7.492;2023-01-29T08:30:15;3.70;99.90
74934;DHT22;63499;53.232;7.492;2023-01-29T08:32:41;3.70;99.90
74934;DHT22;63499;53.232;7.492;2023-01-29T08:35:07;3.70;99.90
74934;DHT22;63499;53.232;7.492;2023-01-29T08:37:33;3.70;99.90
74934;DHT22;63499;53.232;7.492;2023-01-29T08:40:01;3.70;99.90
74934;DHT22;63499;53.232;7.492;2023-01-29T08:42:28;3.80;99.90
74934;DHT22;63499;53.232;7.492;2023-01-29T08:44:54;3.80;99.90
74934;DHT22;63499;53.232;7.492;2023-01-29T08:47:20;3.80;99.90
74934;DHT22;63499;53.232;7.492;2023-01-29T08:49:46;3.80;99.90
74934;DHT22;63499;53.232;7.492;2023-01-29T08:52:12;3.80;99.90
74934;DHT22;63499;53.232;7.492;2023-01-29T08:54:38;3.90;99.90
74934;DHT22;63499;53.232;7.492;2023-01-29T08:57:04;3.90;99.90
74934;DHT22;63499;53.232;7.492;2023-01-29T08:59:30;3.90;99.90
74934;DHT22;63499;53.232;7.492;2023-01-29T09:01:56;3.90;99.90
74934;DHT22;63499;53.232;7.492;2023-01-29T09:04:22;3.90;99.90
74934;DHT22;63499;53.232;7.492;2023-01-29T09:06:48;3.90;99.90
74934;DHT22;63499;53.232;7.492;2023-01-29T09:09:14;4.00;99.90
74934;DHT22;63499;53.232;7.492;2023-01-29T09:11:40;4.00;99.90
74934;DHT22;63499;53.232;7.492;2023-01-29T09:14:06;4.00;99.90
74934;DHT22;63499;53.232;7.492;2023-01-29T09:16:32;4.00;99.90
74934;DHT22;63499;53.232;7.492;2023-01-29T09:18:58;4.10;99.90
74934;DHT22;63499;53.232;7.492;2023-01-29T09:21:24;4.10;99.90
74934;DHT22;63499;53.232;7.492;2023-01-29T09:23:50;4.10;99.90
74934;DHT22;63499;53.232;7.492;2023-01-29T09:26:15;4.20;99.90
74934;DHT22;63499;53.232;7.492;2023-01-29T09:28:41;4.20;99.90
74934;DHT22;63499;53.232;7.492;2023-01-29T09:31:08;4.20;99.90
74934;DHT22;63499;53.232;7.492;2023-01-29T18:35:46;3.70;99.90
